Time;durP1;ratioP1;P1;durP2;ratioP2;P2;SDS_P1;SDS_P2;PMS_P1;PMS_P2;Temp;Humidity;BMP_temperature;BMP_pressure;BME280_temperature;BME280_humidity;BME280_pressure;Samples;Min_cycle;Max_cycle;Signal;HPM_P1;HPM_P2
2022/10/23 00:00:31;;;;;;;36.72;16.05;;;;;;;;;;5176017;27;20046;-78
2022/10/23 00:02:58;;;;;;;33.17;15.15;;;;;;;;;;5175904;27;20049;-78
2022/10/23 00:05:25;;;;;;;30.15;15.55;;;;;;;;;;5175875;27;20046;-77
2022/10/23 00:07:51;;;;;;;32.97;15.45;;;;;;;;;;5175612;27;20051;-77
2022/10/23 00:10:18;;;;;;;29.55;16.52;;;;;;;;;;5157456;27;20042;-77
2022/10/23 00:12:44;;;;;;;36.00;16.27;;;;;;;;;;5175509;27;20118;-78
2022/10/23 00:15:10;;;;;;;28.75;15.73;;;;;;;;;;5175802;27;20042;-77
2022/10/23 00:17:37;;;;;;;30.23;15.45;;;;;;;;;;5157637;27;20098;-77
2022/10/23 00:20:03;;;;;;;31.73;15.70;;;;;;;;;;5175950;27;20118;-78
2022/10/23 00:22:29;;;;;;;32.65;15.73;;;;;;;;;;5175663;27;20106;-78
2022/10/23 00:24:55;;;;;;;32.05;15.93;;;;;;;;;;5175562;27;20082;-78
2022/10/23 00:27:21;;;;;;;36.88;16.38;;;;;;;;;;5175619;27;20137;-78
2022/10/23 00:29:47;;;;;;;32.72;17.02;;;;;;;;;;5157673;27;20050;-78
2022/10/23 00:32:14;;;;;;;36.13;16.83;;;;;;;;;;5175970;27;20049;-78
2022/10/23 00:34:40;;;;;;;38.95;17.88;;;;;;;;;;5175539;27;20042;-77
2022/10/23 00:37:06;;;;;;;31.85;16.27;;;;;;;;;;5175618;27;20073;-78
2022/10/23 00:39:32;;;;;;;35.63;17.77;;;;;;;;;;5175538;27;20042;-77
2022/10/23 00:41:58;;;;;;;37.65;17.60;;;;;;;;;;5175300;27;20049;-78
2022/10/23 00:44:24;;;;;;;35.95;18.08;;;;;;;;;;5175363;27;20097;-77
2022/10/23 00:46:50;;;;;;;36.53;18.08;;;;;;;;;;5175347;27;20046;-77
2022/10/23 00:49:16;;;;;;;41.47;17.83;;;;;;;;;;5176288;27;20046;-79
2022/10/23 00:51:44;;;;;;;33.67;17.80;;;;;;;;;;5175540;27;20050;-78
2022/10/23 00:54:11;;;;;;;36.15;18.35;;;;;;;;;;5175917;27;20046;-78
2022/10/23 00:56:38;;;;;;;39.30;18.60;;;;;;;;;;5175378;27;20123;-78
2022/10/23 00:59:04;;;;;;;32.35;18.13;;;;;;;;;;5175298;27;20049;-78
2022/10/23 01:01:31;;;;;;;36.58;17.90;;;;;;;;;;5157682;27;20150;-78
2022/10/23 01:03:57;;;;;;;37.25;18.50;;;;;;;;;;5159590;27;20047;-78
2022/10/23 01:06:32;;;;;;;31.92;18.58;;;;;;;;;;5179412;27;20054;-79
2022/10/23 01:09:03;;;;;;;34.40;19.50;;;;;;;;;;5178895;27;20046;-78
2022/10/23 01:11:39;;;;;;;35.97;18.23;;;;;;;;;;5179558;27;20056;-79
2022/10/23 01:14:08;;;;;;;32.45;20.25;;;;;;;;;;5179125;27;20530;-79
2022/10/23 01:16:49;;;;;;;36.70;20.85;;;;;;;;;;5178869;27;20156;-81
2022/10/23 01:19:33;;;;;;;39.55;22.42;;;;;;;;;;5178874;27;20124;-79
2022/10/23 01:22:13;;;;;;;45.10;22.55;;;;;;;;;;5178601;27;20509;-79
2022/10/23 01:24:42;;;;;;;43.25;22.88;;;;;;;;;;5178802;27;20054;-78
2022/10/23 01:27:22;;;;;;;37.85;21.65;;;;;;;;;;5178394;27;20095;-79
2022/10/23 01:30:04;;;;;;;35.65;20.73;;;;;;;;;;5160362;27;20042;-79
2022/10/23 01:32:35;;;;;;;35.25;21.08;;;;;;;;;;5159807;27;20414;-79
2022/10/23 01:35:04;;;;;;;33.42;20.92;;;;;;;;;;5179106;27;20094;-79
2022/10/23 01:37:34;;;;;;;38.22;21.45;;;;;;;;;;5159829;27;20042;-77
2022/10/23 01:40:03;;;;;;;34.60;22.05;;;;;;;;;;5178356;27;20047;-78
2022/10/23 01:42:31;;;;;;;39.72;22.73;;;;;;;;;;5178235;27;20050;-78
2022/10/23 01:44:59;;;;;;;38.65;21.60;;;;;;;;;;5160641;27;20065;-78
2022/10/23 01:47:27;;;;;;;39.15;23.10;;;;;;;;;;5159494;27;20039;-79
2022/10/23 01:49:55;;;;;;;36.63;21.58;;;;;;;;;;5178167;27;20042;-79
2022/10/23 01:52:21;;;;;;;38.60;22.17;;;;;;;;;;5177964;27;20133;-78
2022/10/23 01:54:49;;;;;;;32.08;21.10;;;;;;;;;;5178894;27;20039;-77
2022/10/23 01:57:17;;;;;;;40.90;23.42;;;;;;;;;;5159360;27;20435;-77
2022/10/23 01:59:46;;;;;;;40.33;22.65;;;;;;;;;;5178076;27;20389;-78
2022/10/23 02:02:12;;;;;;;39.65;23.20;;;;;;;;;;5179073;27;20046;-78
2022/10/23 02:04:38;;;;;;;;;;;;;;;;;;5160974;27;20363;-79
2022/10/23 02:07:05;;;;;;;39.20;23.15;;;;;;;;;;5178583;27;20017;-77
2022/10/23 02:09:31;;;;;;;36.42;24.58;;;;;;;;;;5160247;27;20386;-78
2022/10/23 02:12:00;;;;;;;35.85;22.98;;;;;;;;;;5180376;27;20537;-78
2022/10/23 02:14:40;;;;;;;39.13;23.00;;;;;;;;;;5180143;27;20053;-79
2022/10/23 02:17:15;;;;;;;41.40;24.73;;;;;;;;;;5180375;27;20049;-78
2022/10/23 02:19:57;;;;;;;38.05;23.33;;;;;;;;;;5178966;27;20500;-79
2022/10/23 02:22:27;;;;;;;34.97;22.80;;;;;;;;;;5160071;27;20045;-78
2022/10/23 02:24:56;;;;;;;36.35;22.67;;;;;;;;;;5177501;27;20049;-78
2022/10/23 02:27:25;;;;;;;33.58;22.65;;;;;;;;;;5177320;27;20051;-78
2022/10/23 02:29:55;;;;;;;32.97;22.75;;;;;;;;;;5177605;27;20094;-78
2022/10/23 02:32:24;;;;;;;36.97;23.55;;;;;;;;;;5177519;27;20042;-78
2022/10/23 02:34:50;;;;;;;38.20;23.50;;;;;;;;;;5177045;27;20507;-78
2022/10/23 02:37:16;;;;;;;41.03;24.00;;;;;;;;;;5176945;27;20554;-79
2022/10/23 02:39:42;;;;;;;39.67;24.45;;;;;;;;;;5177324;27;20044;-79
2022/10/23 02:42:14;;;;;;;38.65;23.75;;;;;;;;;;5176659;27;20481;-78
2022/10/23 02:44:43;;;;;;;33.65;22.70;;;;;;;;;;5177201;27;20042;-78
2022/10/23 02:47:14;;;;;;;37.42;23.45;;;;;;;;;;5176925;27;20069;-78
2022/10/23 02:49:53;;;;;;;38.25;22.95;;;;;;;;;;5177107;27;20046;-78
2022/10/23 02:52:25;;;;;;;41.40;25.55;;;;;;;;;;5177165;27;20046;-78
2022/10/23 02:55:07;;;;;;;46.55;27.23;;;;;;;;;;5176877;27;20065;-79
2022/10/23 02:57:43;;;;;;;42.33;24.13;;;;;;;;;;5176733;27;20039;-79
2022/10/23 03:00:10;;;;;;;37.63;23.52;;;;;;;;;;5177146;27;20119;-78
2022/10/23 03:02:45;;;;;;;39.90;22.52;;;;;;;;;;5176661;27;20095;-78
2022/10/23 03:05:13;;;;;;;38.10;23.05;;;;;;;;;;5176709;27;20136;-80
2022/10/23 03:07:40;;;;;;;34.45;21.35;;;;;;;;;;5176547;27;20046;-78
2022/10/23 03:10:07;;;;;;;33.38;22.23;;;;;;;;;;5177440;27;20355;-78
2022/10/23 03:12:33;;;;;;;34.00;21.30;;;;;;;;;;5176513;27;20046;-78
2022/10/23 03:14:59;;;;;;;35.92;21.90;;;;;;;;;;5177081;27;20043;-78
2022/10/23 03:17:25;;;;;;;36.85;22.80;;;;;;;;;;5177082;27;20050;-78
2022/10/23 03:19:51;;;;;;;31.85;20.05;;;;;;;;;;5177119;27;20046;-78
2022/10/23 03:22:17;;;;;;;28.55;20.08;;;;;;;;;;5176151;27;20082;-79
2022/10/23 03:24:43;;;;;;;32.80;21.05;;;;;;;;;;5175732;27;20046;-80
2022/10/23 03:27:12;;;;;;;33.58;20.80;;;;;;;;;;5175946;27;20058;-80
2022/10/23 03:29:38;;;;;;;32.40;20.60;;;;;;;;;;5176313;27;20042;-80
2022/10/23 03:32:04;;;;;;;34.08;21.55;;;;;;;;;;5176206;27;20538;-78
2022/10/23 03:34:31;;;;;;;32.83;21.23;;;;;;;;;;5157659;27;20474;-79
2022/10/23 03:36:57;;;;;;;30.48;20.23;;;;;;;;;;5176774;27;20446;-81
2022/10/23 03:39:23;;;;;;;29.20;19.23;;;;;;;;;;5175826;27;20397;-79
2022/10/23 03:41:49;;;;;;;27.17;20.33;;;;;;;;;;5176292;27;20042;-79
2022/10/23 03:44:15;;;;;;;27.55;19.45;;;;;;;;;;5175876;27;20117;-79
2022/10/23 03:46:41;;;;;;;30.85;20.17;;;;;;;;;;5176232;27;20042;-79
2022/10/23 03:49:07;;;;;;;28.50;19.92;;;;;;;;;;5175963;27;20482;-80
2022/10/23 03:51:34;;;;;;;30.20;20.70;;;;;;;;;;5157527;27;20049;-79
2022/10/23 03:54:00;;;;;;;29.35;20.20;;;;;;;;;;5175983;27;20050;-79
2022/10/23 03:56:26;;;;;;;30.15;20.55;;;;;;;;;;5175838;27;20466;-78
2022/10/23 03:58:52;;;;;;;32.08;20.58;;;;;;;;;;5175908;27;20045;-78
2022/10/23 04:01:18;;;;;;;33.17;20.95;;;;;;;;;;5157083;27;20042;-78
2022/10/23 04:03:44;;;;;;;29.80;20.60;;;;;;;;;;5157600;27;20053;-78
2022/10/23 04:06:10;;;;;;;32.03;22.02;;;;;;;;;;5175683;27;20049;-78
2022/10/23 04:08:36;;;;;;;30.38;21.58;;;;;;;;;;5175895;27;20114;-79
2022/10/23 04:11:02;;;;;;;30.38;20.67;;;;;;;;;;5139990;27;20062;-78
2022/10/23 04:13:28;;;;;;;37.03;22.42;;;;;;;;;;5157054;27;20047;-77
2022/10/23 04:15:54;;;;;;;34.25;22.60;;;;;;;;;;5175786;27;20042;-78
2022/10/23 04:18:20;;;;;;;28.75;21.50;;;;;;;;;;5175675;27;20073;-78
2022/10/23 04:20:48;;;;;;;32.28;23.85;;;;;;;;;;5175713;27;20474;-78
2022/10/23 04:23:14;;;;;;;37.80;24.63;;;;;;;;;;5175584;27;20049;-79
2022/10/23 04:25:40;;;;;;;36.28;25.45;;;;;;;;;;5175503;27;20462;-79
2022/10/23 04:28:06;;;;;;;43.40;26.70;;;;;;;;;;5175323;27;20105;-78
2022/10/23 04:30:32;;;;;;;39.20;27.17;;;;;;;;;;5175634;27;20050;-78
2022/10/23 04:32:58;;;;;;;43.35;28.52;;;;;;;;;;5175467;27;20129;-78
2022/10/23 04:35:24;;;;;;;45.05;28.70;;;;;;;;;;5175571;27;20049;-78
2022/10/23 04:37:50;;;;;;;44.47;28.08;;;;;;;;;;5178537;27;20125;-79
2022/10/23 04:40:16;;;;;;;45.92;30.20;;;;;;;;;;5179575;27;20473;-78
2022/10/23 04:42:42;;;;;;;48.20;31.40;;;;;;;;;;5179454;27;20218;-79
2022/10/23 04:45:09;;;;;;;43.63;28.45;;;;;;;;;;5161641;27;20046;-78
2022/10/23 04:47:34;;;;;;;;;;;;;;;;;;5161141;27;20049;-78
2022/10/23 04:50:01;;;;;;;41.25;29.63;;;;;;;;;;5160968;27;20009;-79
2022/10/23 04:52:27;;;;;;;48.17;29.85;;;;;;;;;;5179252;27;20042;-80
2022/10/23 04:54:53;;;;;;;38.33;27.60;;;;;;;;;;5161564;27;20084;-80
2022/10/23 04:57:19;;;;;;;43.63;29.13;;;;;;;;;;5160790;27;20042;-80
2022/10/23 04:59:45;;;;;;;44.83;27.08;;;;;;;;;;5161818;27;20145;-81
2022/10/23 05:02:11;;;;;;;42.25;27.23;;;;;;;;;;5160106;27;20497;-77
2022/10/23 05:04:37;;;;;;;41.80;28.02;;;;;;;;;;5179466;27;20046;-80
2022/10/23 05:07:03;;;;;;;45.67;29.83;;;;;;;;;;5179083;27;20053;-82
2022/10/23 05:09:29;;;;;;;39.95;26.88;;;;;;;;;;5179511;27;20057;-82
2022/10/23 05:11:55;;;;;;;40.95;27.25;;;;;;;;;;5179029;27;20048;-82
2022/10/23 05:14:21;;;;;;;37.55;25.30;;;;;;;;;;5179012;27;20171;-81
2022/10/23 05:17:06;;;;;;;36.25;26.90;;;;;;;;;;5179068;27;20178;-84
2022/10/23 05:19:35;;;;;;;42.38;27.30;;;;;;;;;;5178844;27;20484;-83
2022/10/23 05:22:01;;;;;;;41.47;27.00;;;;;;;;;;5178795;27;20130;-82
2022/10/23 05:24:28;;;;;;;41.65;28.73;;;;;;;;;;5178793;27;20077;-82
2022/10/23 05:26:54;;;;;;;44.90;28.60;;;;;;;;;;5178937;27;20058;-82
2022/10/23 05:29:20;;;;;;;43.55;29.00;;;;;;;;;;5160761;27;20141;-80
2022/10/23 05:31:47;;;;;;;40.67;27.38;;;;;;;;;;5178497;27;20478;-82
2022/10/23 05:34:14;;;;;;;36.92;26.73;;;;;;;;;;5160732;27;20093;-82
2022/10/23 05:36:40;;;;;;;40.97;27.13;;;;;;;;;;5178675;27;20038;-83
2022/10/23 05:39:06;;;;;;;38.20;25.48;;;;;;;;;;5178489;27;20038;-82
2022/10/23 05:41:33;;;;;;;45.83;29.60;;;;;;;;;;5178449;27;20042;-82
2022/10/23 05:43:59;;;;;;;36.42;26.05;;;;;;;;;;5143011;27;20046;-80
2022/10/23 05:46:26;;;;;;;44.03;28.35;;;;;;;;;;5178285;27;20038;-75
2022/10/23 05:48:52;;;;;;;40.30;26.88;;;;;;;;;;5177334;27;20094;-79
2022/10/23 05:51:21;;;;;;;39.50;27.30;;;;;;;;;;5178167;27;20094;-79
2022/10/23 05:53:51;;;;;;;44.22;28.25;;;;;;;;;;5159698;27;20050;-72
2022/10/23 05:56:17;;;;;;;43.40;27.92;;;;;;;;;;5178107;27;20178;-78
2022/10/23 05:58:43;;;;;;;;;;;;;;;;;;5178740;27;20045;-74
2022/10/23 06:01:10;;;;;;;40.33;28.73;;;;;;;;;;5159646;27;19922;-73
2022/10/23 06:03:37;;;;;;;41.35;28.20;;;;;;;;;;5177575;27;20106;-75
2022/10/23 06:06:03;;;;;;;;;;;;;;;;;;5178540;27;20046;-75
2022/10/23 06:08:29;;;;;;;38.45;26.60;;;;;;;;;;5177850;27;19927;-75
2022/10/23 06:10:55;;;;;;;;;;;;;;;;;;5159831;27;20123;-76
2022/10/23 06:13:21;;;;;;;44.67;26.77;;;;;;;;;;5177265;27;20005;-79
2022/10/23 06:15:47;;;;;;;44.08;26.85;;;;;;;;;;5159636;27;20052;-75
2022/10/23 06:18:13;;;;;;;41.42;27.90;;;;;;;;;;5177077;27;20042;-80
2022/10/23 06:20:39;;;;;;;39.67;27.30;;;;;;;;;;5177312;27;20104;-75
2022/10/23 06:23:05;;;;;;;42.80;27.90;;;;;;;;;;5159311;27;20038;-72
2022/10/23 06:25:32;;;;;;;43.33;28.08;;;;;;;;;;5177245;27;20485;-76
2022/10/23 06:27:58;;;;;;;;;;;;;;;;;;5177549;27;20105;-74
2022/10/23 06:30:24;;;;;;;42.70;27.23;;;;;;;;;;5177815;27;19919;-75
2022/10/23 06:32:50;;;;;;;48.85;28.30;;;;;;;;;;5159041;27;20042;-76
2022/10/23 06:35:19;;;;;;;45.22;28.00;;;;;;;;;;5159310;27;20042;-75
2022/10/23 06:37:45;;;;;;;39.30;27.00;;;;;;;;;;5177546;27;20120;-73
2022/10/23 06:40:11;;;;;;;38.17;26.45;;;;;;;;;;5177367;27;20042;-74
2022/10/23 06:42:37;;;;;;;40.30;26.90;;;;;;;;;;5177135;27;20046;-75
2022/10/23 06:45:03;;;;;;;45.08;28.63;;;;;;;;;;5177089;27;20085;-74
2022/10/23 06:47:29;;;;;;;44.67;28.13;;;;;;;;;;5157940;27;20596;-75
2022/10/23 06:49:55;;;;;;;43.40;28.30;;;;;;;;;;5158569;27;20078;-72
2022/10/23 06:52:21;;;;;;;42.67;27.40;;;;;;;;;;5176909;27;20051;-73
2022/10/23 06:54:47;;;;;;;39.95;26.90;;;;;;;;;;5176892;27;20042;-76
2022/10/23 06:57:13;;;;;;;40.03;26.88;;;;;;;;;;5176876;27;20042;-76
2022/10/23 06:59:39;;;;;;;42.78;27.95;;;;;;;;;;5176740;27;20133;-73
2022/10/23 07:02:06;;;;;;;40.28;26.23;;;;;;;;;;5176544;27;20043;-77
2022/10/23 07:04:32;;;;;;;46.83;27.23;;;;;;;;;;5177235;27;20097;-76
2022/10/23 07:06:58;;;;;;;35.97;26.40;;;;;;;;;;5176839;27;20042;-74
2022/10/23 07:09:24;;;;;;;48.13;26.20;;;;;;;;;;5176553;27;20051;-73
2022/10/23 07:11:50;;;;;;;36.90;25.17;;;;;;;;;;5177041;27;20057;-74
2022/10/23 07:14:16;;;;;;;40.10;25.33;;;;;;;;;;5140864;27;20486;-72
2022/10/23 07:16:42;;;;;;;45.17;25.40;;;;;;;;;;5157652;27;20042;-72
2022/10/23 07:19:08;;;;;;;36.65;25.02;;;;;;;;;;5157586;27;20393;-76
2022/10/23 07:21:35;;;;;;;37.28;26.50;;;;;;;;;;5176428;27;20042;-72
2022/10/23 07:24:01;;;;;;;44.70;26.40;;;;;;;;;;5176409;27;20042;-72
2022/10/23 07:26:27;;;;;;;42.65;25.98;;;;;;;;;;5157600;27;20045;-78
2022/10/23 07:28:54;;;;;;;41.15;25.55;;;;;;;;;;5158386;27;20046;-71
2022/10/23 07:31:24;;;;;;;47.60;26.25;;;;;;;;;;5157867;27;20402;-75
2022/10/23 07:33:50;;;;;;;42.40;24.13;;;;;;;;;;5176888;27;20065;-70
2022/10/23 07:36:17;;;;;;;38.85;24.65;;;;;;;;;;5176798;27;20050;-72
2022/10/23 07:38:43;;;;;;;39.28;24.70;;;;;;;;;;5157403;27;20034;-74
2022/10/23 07:41:10;;;;;;;37.17;24.25;;;;;;;;;;5157603;27;20050;-79
2022/10/23 07:43:36;;;;;;;36.00;23.67;;;;;;;;;;5157388;27;20049;-77
2022/10/23 07:46:03;;;;;;;37.67;24.05;;;;;;;;;;5157657;27;20054;-75
2022/10/23 07:48:29;;;;;;;37.50;23.25;;;;;;;;;;5176094;27;20080;-69
2022/10/23 07:50:55;;;;;;;;;;;;;;;;;;5176299;27;20129;-73
2022/10/23 07:53:22;;;;;;;37.35;23.00;;;;;;;;;;5175823;27;19972;-74
2022/10/23 07:55:54;;;;;;;40.10;23.85;;;;;;;;;;5175681;27;20038;-76
2022/10/23 07:58:21;;;;;;;35.63;22.95;;;;;;;;;;5175933;27;20034;-76
2022/10/23 08:00:52;;;;;;;38.55;22.08;;;;;;;;;;5175842;27;20038;-75
2022/10/23 08:03:19;;;;;;;37.25;23.58;;;;;;;;;;5158006;27;20034;-78
2022/10/23 08:05:45;;;;;;;;;;;;;;;;;;5176195;27;20038;-77
2022/10/23 08:08:11;;;;;;;34.97;22.52;;;;;;;;;;5175929;27;20009;-75
2022/10/23 08:10:37;;;;;;;37.80;22.27;;;;;;;;;;5140274;27;20038;-77
2022/10/23 08:13:03;;;;;;;34.95;21.63;;;;;;;;;;5179532;27;20061;-77
2022/10/23 08:15:29;;;;;;;35.35;22.60;;;;;;;;;;5161870;27;20109;-76
2022/10/23 08:17:55;;;;;;;35.97;21.77;;;;;;;;;;5162466;27;20042;-75
2022/10/23 08:20:21;;;;;;;35.42;20.15;;;;;;;;;;5162499;27;20050;-80
2022/10/23 08:22:47;;;;;;;31.77;21.77;;;;;;;;;;5180005;27;20034;-76
2022/10/23 08:25:13;;;;;;;38.13;22.92;;;;;;;;;;5161247;27;20130;-78
2022/10/23 08:27:39;;;;;;;37.30;21.85;;;;;;;;;;5140691;27;20053;-77
2022/10/23 08:30:06;;;;;;;36.97;22.02;;;;;;;;;;5159758;27;20044;-75
2022/10/23 08:32:32;;;;;;;32.85;21.90;;;;;;;;;;5159037;27;20038;-76
2022/10/23 08:34:58;;;;;;;33.38;20.77;;;;;;;;;;5158966;27;20038;-81
2022/10/23 08:37:24;;;;;;;34.25;23.48;;;;;;;;;;5159090;27;20045;-75
2022/10/23 08:39:50;;;;;;;34.75;21.40;;;;;;;;;;5157535;27;20411;-77
2022/10/23 08:42:20;;;;;;;34.03;21.38;;;;;;;;;;5158859;27;20095;-75
2022/10/23 08:44:52;;;;;;;36.42;22.27;;;;;;;;;;5158586;27;20044;-74
2022/10/23 08:47:21;;;;;;;35.22;22.92;;;;;;;;;;5158368;27;20415;-76
2022/10/23 08:49:47;;;;;;;35.85;21.35;;;;;;;;;;5158612;27;20039;-80
2022/10/23 08:52:36;;;;;;;32.88;21.35;;;;;;;;;;5158633;27;20092;-72
2022/10/23 08:55:11;;;;;;;33.20;22.08;;;;;;;;;;5143534;27;20500;-75
2022/10/23 08:57:42;;;;;;;31.42;20.90;;;;;;;;;;5158547;27;20042;-76
2022/10/23 09:00:11;;;;;;;30.92;21.65;;;;;;;;;;5158252;27;20107;-79
2022/10/23 09:02:40;;;;;;;36.70;23.27;;;;;;;;;;5158526;27;20046;-75
2022/10/23 09:05:12;;;;;;;37.00;22.17;;;;;;;;;;5158349;27;20049;-76
2022/10/23 09:07:38;;;;;;;36.30;22.65;;;;;;;;;;5156970;27;20052;-77
2022/10/23 09:10:23;;;;;;;33.53;21.25;;;;;;;;;;5158093;27;20042;-81
2022/10/23 09:12:49;;;;;;;34.65;22.50;;;;;;;;;;5157861;27;20054;-75
2022/10/23 09:15:39;;;;;;;38.53;21.95;;;;;;;;;;5156959;27;20053;-76
2022/10/23 09:18:13;;;;;;;34.20;20.60;;;;;;;;;;5157607;27;20427;-82
2022/10/23 09:20:40;;;;;;;35.22;19.88;;;;;;;;;;5158073;27;20047;-78
2022/10/23 09:23:21;;;;;;;32.17;19.02;;;;;;;;;;5156252;27;20049;-76
2022/10/23 09:25:49;;;;;;;32.55;18.73;;;;;;;;;;5158232;27;20359;-75
2022/10/23 09:28:18;;;;;;;29.38;18.42;;;;;;;;;;5173447;27;20483;-76
2022/10/23 09:30:45;;;;;;;32.53;19.38;;;;;;;;;;5178380;27;20046;-70
2022/10/23 09:33:17;;;;;;;31.67;17.77;;;;;;;;;;5178519;27;20046;-71
2022/10/23 09:35:52;;;;;;;29.70;18.05;;;;;;;;;;5160032;27;20049;-70
2022/10/23 09:38:26;;;;;;;34.70;19.35;;;;;;;;;;5178310;27;20049;-81
2022/10/23 09:40:52;;;;;;;33.63;19.35;;;;;;;;;;5178882;27;20042;-72
2022/10/23 09:43:24;;;;;;;36.45;18.85;;;;;;;;;;5178155;27;20049;-73
2022/10/23 09:46:06;;;;;;;28.55;17.73;;;;;;;;;;5178212;27;20054;-73
2022/10/23 09:48:33;;;;;;;28.88;18.92;;;;;;;;;;5178384;27;20130;-78
2022/10/23 09:51:01;;;;;;;26.77;16.73;;;;;;;;;;5178187;27;20046;-73
2022/10/23 09:53:59;;;;;;;27.90;16.80;;;;;;;;;;5178105;27;20102;-79
2022/10/23 09:56:27;;;;;;;29.30;15.88;;;;;;;;;;5103815;27;20056;-75
2022/10/23 09:58:59;;;;;;;28.98;16.50;;;;;;;;;;5178289;27;20041;-78
2022/10/23 10:01:31;;;;;;;26.52;15.82;;;;;;;;;;5178027;27;20098;-74
2022/10/23 10:03:57;;;;;;;26.13;16.13;;;;;;;;;;5159930;27;20121;-75
2022/10/23 10:06:23;;;;;;;;;;;;;;;;;;5159419;27;20046;-72
2022/10/23 10:08:51;;;;;;;25.23;16.10;;;;;;;;;;5178483;27;19922;-76
2022/10/23 10:11:20;;;;;;;29.98;15.45;;;;;;;;;;5178727;27;20094;-78
2022/10/23 10:14:02;;;;;;;28.55;15.95;;;;;;;;;;5177797;27;20125;-72
2022/10/23 10:16:47;;;;;;;28.00;17.33;;;;;;;;;;5160149;27;20374;-75
2022/10/23 10:19:19;;;;;;;27.38;15.82;;;;;;;;;;5177797;27;20089;-72
2022/10/23 10:22:07;;;;;;;28.02;15.13;;;;;;;;;;5177829;27;20038;-81
2022/10/23 10:24:36;;;;;;;27.70;15.02;;;;;;;;;;5177323;27;20136;-71
2022/10/23 10:27:17;;;;;;;25.33;12.95;;;;;;;;;;5177170;27;20050;-73
2022/10/23 10:29:49;;;;;;;22.98;13.30;;;;;;;;;;5177379;27;20042;-77
2022/10/23 10:32:39;;;;;;;28.05;14.90;;;;;;;;;;5177718;27;20129;-71
2022/10/23 10:35:16;;;;;;;22.83;12.68;;;;;;;;;;5163477;27;20061;-72
2022/10/23 10:38:04;;;;;;;24.30;13.52;;;;;;;;;;5159169;27;20114;-71
2022/10/23 10:40:36;;;;;;;23.13;12.07;;;;;;;;;;5158377;27;20046;-67
2022/10/23 10:43:08;;;;;;;24.17;12.13;;;;;;;;;;5177098;27;20114;-72
2022/10/23 10:45:43;;;;;;;21.38;12.90;;;;;;;;;;5176417;27;20397;-71
2022/10/23 10:48:12;;;;;;;22.98;11.20;;;;;;;;;;5177204;27;20050;-72
2022/10/23 10:50:43;;;;;;;21.98;12.23;;;;;;;;;;5177514;27;20106;-72
2022/10/23 10:53:19;;;;;;;21.67;11.10;;;;;;;;;;5176774;27;20090;-78
2022/10/23 10:55:48;;;;;;;19.77;11.45;;;;;;;;;;5158371;27;20057;-68
2022/10/23 10:58:14;;;;;;;22.88;11.45;;;;;;;;;;5158019;27;20472;-72
2022/10/23 11:00:48;;;;;;;23.50;11.50;;;;;;;;;;5158372;27;20350;-73
2022/10/23 11:03:29;;;;;;;22.52;11.63;;;;;;;;;;5176603;27;20080;-68
2022/10/23 11:05:57;;;;;;;18.55;11.10;;;;;;;;;;5177157;27;20046;-69
2022/10/23 11:08:43;;;;;;;19.70;10.85;;;;;;;;;;5157986;27;20469;-70
2022/10/23 11:11:15;;;;;;;21.15;11.80;;;;;;;;;;5158030;27;20095;-68
2022/10/23 11:13:43;;;;;;;21.08;10.65;;;;;;;;;;5176473;27;20042;-68
2022/10/23 11:16:14;;;;;;;24.10;12.15;;;;;;;;;;5158058;27;20102;-69
2022/10/23 11:18:42;;;;;;;21.58;11.50;;;;;;;;;;5158070;27;20106;-70
2022/10/23 11:21:22;;;;;;;25.80;11.65;;;;;;;;;;5176767;27;20496;-75
2022/10/23 11:23:57;;;;;;;23.02;11.80;;;;;;;;;;5158746;27;20536;-75
2022/10/23 11:26:53;;;;;;;21.40;12.32;;;;;;;;;;5176923;27;20042;-72
2022/10/23 11:29:32;;;;;;;20.27;11.27;;;;;;;;;;5154569;27;20062;-73
2022/10/23 11:32:01;;;;;;;23.55;11.00;;;;;;;;;;5176321;27;20125;-72
2022/10/23 11:34:45;;;;;;;19.95;11.27;;;;;;;;;;5157653;27;20081;-72
2022/10/23 11:37:15;;;;;;;24.85;11.55;;;;;;;;;;5157662;27;20049;-73
2022/10/23 11:39:59;;;;;;;18.40;9.90;;;;;;;;;;5176627;27;20041;-73
2022/10/23 11:42:33;;;;;;;22.52;10.77;;;;;;;;;;5176254;27;20049;-70
2022/10/23 11:44:59;;;;;;;23.13;10.35;;;;;;;;;;5157952;27;20050;-74
2022/10/23 11:47:27;;;;;;;18.08;10.38;;;;;;;;;;5175342;27;20385;-69
2022/10/23 11:50:06;;;;;;;18.45;10.02;;;;;;;;;;5176392;27;20512;-74
2022/10/23 11:52:32;;;;;;;20.20;9.80;;;;;;;;;;5140462;27;20047;-70
2022/10/23 11:55:03;;;;;;;17.40;9.02;;;;;;;;;;5176030;27;20088;-73
2022/10/23 11:57:29;;;;;;;21.42;10.40;;;;;;;;;;5176158;27;20042;-77
2022/10/23 11:59:56;;;;;;;19.30;10.05;;;;;;;;;;5177063;27;20039;-73
2022/10/23 12:02:22;;;;;;;16.20;9.15;;;;;;;;;;5175958;27;20042;-71
2022/10/23 12:04:49;;;;;;;20.50;10.50;;;;;;;;;;5175974;27;20603;-72
2022/10/23 12:07:36;;;;;;;21.45;9.40;;;;;;;;;;5176405;27;20122;-74
2022/10/23 12:10:23;;;;;;;18.98;10.07;;;;;;;;;;5158239;27;20049;-72
2022/10/23 12:12:56;;;;;;;19.67;9.43;;;;;;;;;;5175363;27;20056;-74
2022/10/23 12:15:23;;;;;;;19.48;9.50;;;;;;;;;;5175480;27;20486;-74
2022/10/23 12:17:50;;;;;;;19.17;9.32;;;;;;;;;;5175738;27;20074;-73
2022/10/23 12:20:23;;;;;;;20.52;8.88;;;;;;;;;;5175823;27;20086;-73
2022/10/23 12:22:55;;;;;;;18.05;8.73;;;;;;;;;;5175670;27;20049;-74
2022/10/23 12:25:25;;;;;;;19.63;9.27;;;;;;;;;;5176175;27;20043;-70
2022/10/23 12:28:05;;;;;;;21.05;8.25;;;;;;;;;;5175301;27;20073;-68
2022/10/23 12:30:40;;;;;;;20.00;8.32;;;;;;;;;;5139746;27;20058;-67
2022/10/23 12:33:26;;;;;;;17.15;8.85;;;;;;;;;;5175871;27;20043;-68
2022/10/23 12:35:55;;;;;;;18.08;9.05;;;;;;;;;;5175881;27;20367;-70
2022/10/23 12:38:25;;;;;;;20.35;8.88;;;;;;;;;;5175667;27;20046;-68
2022/10/23 12:40:52;;;;;;;15.50;8.10;;;;;;;;;;5175283;27;20073;-70
2022/10/23 12:43:24;;;;;;;20.02;9.10;;;;;;;;;;5175044;27;20046;-68
2022/10/23 12:45:50;;;;;;;17.08;8.00;;;;;;;;;;5175026;27;20131;-65
2022/10/23 12:48:18;;;;;;;17.98;7.80;;;;;;;;;;5175358;27;20401;-70
2022/10/23 12:50:49;;;;;;;19.40;8.68;;;;;;;;;;5175233;27;20045;-71
2022/10/23 12:53:16;;;;;;;18.70;8.48;;;;;;;;;;5176244;27;20042;-69
2022/10/23 12:56:02;;;;;;;24.45;8.50;;;;;;;;;;5139682;27;20045;-70
2022/10/23 12:58:31;;;;;;;18.70;8.65;;;;;;;;;;5158689;27;20050;-69
2022/10/23 13:00:58;;;;;;;18.73;8.23;;;;;;;;;;5178940;27;20042;-72
2022/10/23 13:03:25;;;;;;;17.77;8.35;;;;;;;;;;5178962;27;20053;-72
2022/10/23 13:05:52;;;;;;;19.75;8.85;;;;;;;;;;5179183;27;20540;-70
2022/10/23 13:08:19;;;;;;;18.13;8.43;;;;;;;;;;5179730;27;20049;-70
2022/10/23 13:10:46;;;;;;;17.02;7.88;;;;;;;;;;5178863;27;20053;-69
2022/10/23 13:13:13;;;;;;;20.13;8.63;;;;;;;;;;5142927;27;20048;-69
2022/10/23 13:15:43;;;;;;;16.58;8.38;;;;;;;;;;5143283;27;20046;-67
2022/10/23 13:18:12;;;;;;;18.52;8.13;;;;;;;;;;5178806;27;20042;-72
2022/10/23 13:20:41;;;;;;;16.08;8.45;;;;;;;;;;5178761;27;20048;-69
2022/10/23 13:23:08;;;;;;;16.27;8.55;;;;;;;;;;5178552;27;20046;-68
2022/10/23 13:25:35;;;;;;;17.85;8.60;;;;;;;;;;5142976;27;20050;-71
2022/10/23 13:28:07;;;;;;;15.20;8.40;;;;;;;;;;5178543;27;20061;-68
2022/10/23 13:30:36;;;;;;;21.88;8.25;;;;;;;;;;5160287;27;20053;-66
2022/10/23 13:33:13;;;;;;;19.83;8.43;;;;;;;;;;5178353;27;20042;-70
2022/10/23 13:35:39;;;;;;;23.63;8.00;;;;;;;;;;5178792;27;20046;-68
2022/10/23 13:38:08;;;;;;;16.55;8.20;;;;;;;;;;5159769;27;20039;-63
2022/10/23 13:40:34;;;;;;;17.95;7.95;;;;;;;;;;5179021;27;20043;-67
2022/10/23 13:43:01;;;;;;;19.63;7.65;;;;;;;;;;5178286;27;20046;-70
2022/10/23 13:45:27;;;;;;;18.15;7.38;;;;;;;;;;5178526;27;20053;-70
2022/10/23 13:47:53;;;;;;;;;;;;;;;;;;5178557;27;20042;-69
2022/10/23 13:50:19;;;;;;;21.38;7.13;;;;;;;;;;5160004;27;19926;-70
2022/10/23 13:52:45;;;;;;;;;;;;;;;;;;5178825;27;20100;-70
2022/10/23 13:55:32;;;;;;;17.13;7.45;;;;;;;;;;5160025;27;19956;-67
2022/10/23 13:57:58;;;;;;;15.60;7.25;;;;;;;;;;5178559;27;20129;-71
2022/10/23 14:00:24;;;;;;;16.98;7.07;;;;;;;;;;5177976;27;20042;-70
2022/10/23 14:02:50;;;;;;;18.02;7.10;;;;;;;;;;5142445;27;20045;-71
2022/10/23 14:05:16;;;;;;;17.20;7.47;;;;;;;;;;5178089;27;20378;-72
2022/10/23 14:07:42;;;;;;;14.63;7.10;;;;;;;;;;5177914;27;20038;-74
2022/10/23 14:10:08;;;;;;;20.10;7.18;;;;;;;;;;5177116;27;20080;-73
2022/10/23 14:12:38;;;;;;;14.55;6.68;;;;;;;;;;5177944;27;20042;-73
2022/10/23 14:15:05;;;;;;;15.32;6.80;;;;;;;;;;5177403;27;20134;-68
2022/10/23 14:17:31;;;;;;;;;;;;;;;;;;5178180;27;20046;-71
2022/10/23 14:19:57;;;;;;;15.90;7.88;;;;;;;;;;5177731;27;20383;-69
2022/10/23 14:22:23;;;;;;;16.10;6.80;;;;;;;;;;5177411;27;20042;-70
2022/10/23 14:24:49;;;;;;;15.80;7.35;;;;;;;;;;5177730;27;20057;-71
2022/10/23 14:27:15;;;;;;;14.73;6.53;;;;;;;;;;5177147;27;20038;-68
2022/10/23 14:29:41;;;;;;;18.10;6.80;;;;;;;;;;5177356;27;20042;-68
2022/10/23 14:32:07;;;;;;;12.95;6.53;;;;;;;;;;5177397;27;20125;-70
2022/10/23 14:34:33;;;;;;;17.17;7.18;;;;;;;;;;5177582;27;20422;-71